Time;durP1;ratioP1;P1;durP2;ratioP2;P2;SDS_P1;SDS_P2;PMS_P1;PMS_P2;Temp;Humidity;BMP_temperature;BMP_pressure;BME280_temperature;BME280_humidity;BME280_pressure;Samples;Min_cycle;Max_cycle;Signal;HPM_P1;HPM_P2
2021/12/30 00:00:24;;;;;;;0.32;0.30;;;19.50;63.30;;;;;;5014582;28;20033;-70
2021/12/30 00:02:49;;;;;;;0.50;0.40;;;19.50;63.40;;;;;;5013555;28;20450;-70
2021/12/30 00:05:15;;;;;;;0.52;0.30;;;19.50;63.40;;;;;;5012990;28;20034;-70
2021/12/30 00:07:41;;;;;;;0.50;0.40;;;19.50;63.40;;;;;;5013117;28;20038;-70
2021/12/30 00:10:07;;;;;;;3.08;0.50;;;19.50;63.50;;;;;;4996874;28;20096;-70
2021/12/30 00:12:33;;;;;;;1.00;0.40;;;19.50;63.50;;;;;;5013136;28;20478;-70
2021/12/30 00:14:59;;;;;;;0.60;0.30;;;19.50;63.50;;;;;;4997015;28;20064;-70
2021/12/30 00:17:24;;;;;;;0.45;0.30;;;19.50;63.50;;;;;;4996956;28;20062;-70
2021/12/30 00:19:50;;;;;;;0.40;0.30;;;19.50;63.50;;;;;;5014320;28;20054;-70
2021/12/30 00:22:16;;;;;;;1.10;0.50;;;19.40;63.50;;;;;;5012668;28;20038;-70
2021/12/30 00:24:41;;;;;;;0.35;0.30;;;19.40;63.50;;;;;;5013134;28;20500;-70
2021/12/30 00:27:07;;;;;;;1.50;0.38;;;19.40;63.50;;;;;;5012987;28;20109;-70
2021/12/30 00:29:33;;;;;;;1.15;0.40;;;19.40;63.50;;;;;;5012773;28;20022;-70
2021/12/30 00:31:59;;;;;;;0.32;0.20;;;19.40;63.50;;;;;;5014107;28;20422;-70
2021/12/30 00:34:25;;;;;;;0.30;0.30;;;19.50;63.60;;;;;;5013723;28;20026;-70
2021/12/30 00:36:50;;;;;;;0.95;0.30;;;19.50;63.60;;;;;;5012731;28;20108;-70
2021/12/30 00:39:16;;;;;;;0.60;0.30;;;19.40;63.50;;;;;;5013881;28;20034;-70
2021/12/30 00:41:42;;;;;;;0.85;0.28;;;19.40;63.60;;;;;;5003487;28;20035;-70
2021/12/30 00:44:07;;;;;;;0.38;0.20;;;19.40;63.60;;;;;;4976817;28;20033;-70
2021/12/30 00:46:33;;;;;;;0.63;0.35;;;19.40;63.70;;;;;;4992951;28;20113;-70
2021/12/30 00:48:58;;;;;;;0.40;0.38;;;19.40;63.60;;;;;;4976535;28;20058;-70
2021/12/30 00:51:24;;;;;;;1.17;0.50;;;19.40;63.70;;;;;;4992791;28;20022;-70
2021/12/30 00:53:50;;;;;;;0.80;0.50;;;19.40;63.70;;;;;;4993928;28;20026;-70
2021/12/30 00:56:15;;;;;;;1.00;0.50;;;19.50;63.70;;;;;;4993094;28;20030;-70
2021/12/30 00:58:41;;;;;;;1.10;0.25;;;19.40;63.70;;;;;;4993828;28;20029;-70
2021/12/30 01:01:07;;;;;;;0.45;0.20;;;19.40;63.70;;;;;;4994173;28;20022;-70
2021/12/30 01:03:34;;;;;;;1.27;0.40;;;19.40;63.70;;;;;;4993489;28;20026;-70
2021/12/30 01:06:00;;;;;;;0.40;0.30;;;19.40;63.70;;;;;;4993798;28;20370;-71
2021/12/30 01:08:25;;;;;;;0.60;0.30;;;19.40;63.80;;;;;;4976233;28;20050;-70
2021/12/30 01:10:51;;;;;;;0.28;0.22;;;19.40;63.70;;;;;;4992530;28;20509;-70
2021/12/30 01:13:23;;;;;;;0.85;0.40;;;19.40;63.80;;;;;;4993750;28;20476;-71
2021/12/30 01:16:03;;;;;;;2.08;0.35;;;19.40;63.80;;;;;;4977110;28;20381;-71
2021/12/30 01:18:43;;;;;;;1.27;0.40;;;19.40;63.80;;;;;;4991971;28;20038;-71
2021/12/30 01:21:11;;;;;;;0.50;0.30;;;19.40;63.80;;;;;;4977717;28;20106;-70
2021/12/30 01:23:37;;;;;;;0.47;0.25;;;19.30;63.80;;;;;;4993352;28;20020;-70
2021/12/30 01:26:03;;;;;;;0.90;0.35;;;19.40;63.90;;;;;;4993609;28;20401;-71
2021/12/30 01:28:29;;;;;;;0.80;0.40;;;19.40;64.20;;;;;;4976053;28;20481;-70
2021/12/30 01:30:55;;;;;;;0.77;0.30;;;19.40;63.90;;;;;;4992607;28;20038;-70
2021/12/30 01:33:21;;;;;;;1.33;0.40;;;19.30;63.90;;;;;;4994204;28;20476;-70
2021/12/30 01:35:46;;;;;;;0.50;0.40;;;19.40;65.00;;;;;;5011754;28;20053;-71
2021/12/30 01:38:15;;;;;;;0.60;0.40;;;19.30;63.90;;;;;;5013116;28;20022;-70
2021/12/30 01:40:41;;;;;;;1.02;0.30;;;19.30;63.90;;;;;;5012700;28;20030;-70
2021/12/30 01:43:07;;;;;;;0.85;0.50;;;19.30;63.90;;;;;;5011378;28;20495;-70
2021/12/30 01:45:34;;;;;;;0.65;0.35;;;19.30;63.90;;;;;;4991562;28;20030;-70
2021/12/30 01:48:00;;;;;;;0.50;0.38;;;19.30;63.90;;;;;;5008302;28;20022;-70
2021/12/30 01:50:25;;;;;;;0.60;0.50;;;19.30;63.90;;;;;;5006413;28;20029;-70
2021/12/30 01:52:51;;;;;;;1.25;0.38;;;19.40;64.00;;;;;;5010512;28;20045;-70
2021/12/30 01:55:18;;;;;;;0.30;0.20;;;19.40;64.00;;;;;;5009706;28;20076;-70
2021/12/30 01:57:43;;;;;;;0.50;0.30;;;19.30;64.00;;;;;;5009798;28;20061;-70
2021/12/30 02:00:11;;;;;;;1.20;0.47;;;19.40;64.00;;;;;;5009713;28;20029;-70
2021/12/30 02:02:37;;;;;;;0.77;0.40;;;19.30;64.00;;;;;;5008643;28;20104;-70
2021/12/30 02:05:03;;;;;;;0.60;0.28;;;19.30;64.00;;;;;;4992420;28;20109;-70
2021/12/30 02:07:28;;;;;;;1.00;0.50;;;19.30;64.00;;;;;;5009672;28;20073;-70
2021/12/30 02:10:00;;;;;;;2.97;0.50;;;19.30;64.00;;;;;;4991701;28;20470;-70
2021/12/30 02:12:26;;;;;;;0.50;0.40;;;19.40;64.10;;;;;;5009992;28;20699;-70
2021/12/30 02:14:52;;;;;;;0.45;0.40;;;19.30;64.00;;;;;;5009010;28;20022;-70
2021/12/30 02:17:18;;;;;;;1.88;0.40;;;19.30;64.10;;;;;;5009317;28;20040;-70
2021/12/30 02:19:43;;;;;;;1.80;0.60;;;19.30;64.20;;;;;;5010623;28;20109;-70
2021/12/30 02:22:09;;;;;;;0.45;0.40;;;19.40;64.20;;;;;;5009570;28;20551;-70
2021/12/30 02:24:37;;;;;;;1.48;0.40;;;19.30;64.20;;;;;;4992615;28;20038;-70
2021/12/30 02:27:02;;;;;;;1.17;0.55;;;19.30;64.20;;;;;;5008695;28;20072;-70
2021/12/30 02:29:28;;;;;;;1.25;0.43;;;19.30;64.20;;;;;;5009170;28;20439;-70
2021/12/30 02:31:54;;;;;;;0.70;0.30;;;19.30;64.20;;;;;;5012920;28;20017;-70
2021/12/30 02:34:21;;;;;;;0.68;0.32;;;19.30;64.20;;;;;;5010359;28;20404;-70
2021/12/30 02:36:47;;;;;;;1.27;0.40;;;19.30;64.20;;;;;;5010867;28;20451;-70
2021/12/30 02:39:13;;;;;;;0.50;0.32;;;19.30;64.20;;;;;;4996104;28;20026;-70
2021/12/30 02:41:39;;;;;;;0.63;0.40;;;19.30;64.30;;;;;;5013939;28;20113;-70
2021/12/30 02:44:06;;;;;;;0.30;0.30;;;19.30;64.30;;;;;;5012964;28;20108;-70
2021/12/30 02:46:32;;;;;;;0.30;0.30;;;19.30;64.20;;;;;;5012615;28;20452;-70
2021/12/30 02:48:58;;;;;;;0.57;0.20;;;19.30;64.20;;;;;;4994788;28;20467;-70
2021/12/30 02:51:24;;;;;;;0.50;0.50;;;19.30;64.30;;;;;;5011708;28;20029;-70
2021/12/30 02:53:50;;;;;;;1.85;0.57;;;19.30;64.30;;;;;;5012867;28;20030;-70
2021/12/30 02:56:16;;;;;;;2.45;0.43;;;19.30;64.30;;;;;;5011830;28;20056;-70
2021/12/30 02:58:41;;;;;;;0.98;0.45;;;19.30;64.30;;;;;;4994256;28;20388;-70
2021/12/30 03:01:12;;;;;;;1.17;0.57;;;19.30;64.30;;;;;;5011751;28;20400;-70
2021/12/30 03:03:38;;;;;;;0.70;0.40;;;19.30;64.40;;;;;;5013160;28;20534;-70
2021/12/30 03:06:05;;;;;;;1.00;0.40;;;19.30;64.30;;;;;;5012917;28;20026;-70
2021/12/30 03:08:30;;;;;;;1.00;0.50;;;19.30;64.30;;;;;;5014305;28;20026;-70
2021/12/30 03:10:56;;;;;;;0.60;0.50;;;19.30;64.40;;;;;;4997781;28;20120;-70
2021/12/30 03:13:32;;;;;;;1.40;0.57;;;19.30;64.30;;;;;;5015288;28;20499;-70
2021/12/30 03:16:06;;;;;;;1.05;0.60;;;19.30;64.40;;;;;;5014948;28;20032;-70
2021/12/30 03:18:32;;;;;;;0.63;0.50;;;19.30;64.40;;;;;;5014386;28;20531;-70
2021/12/30 03:20:58;;;;;;;1.13;0.40;;;19.30;64.40;;;;;;4998003;28;20022;-70
2021/12/30 03:23:24;;;;;;;1.55;0.50;;;19.30;64.50;;;;;;5015343;28;20490;-70
2021/12/30 03:25:49;;;;;;;1.30;0.50;;;19.30;64.50;;;;;;5013875;28;20030;-70
2021/12/30 03:28:15;;;;;;;1.60;0.50;;;19.30;64.50;;;;;;5015214;28;20447;-70
2021/12/30 03:30:41;;;;;;;2.70;0.63;;;19.30;64.50;;;;;;4997317;28;20056;-70
2021/12/30 03:33:06;;;;;;;0.60;0.30;;;19.30;64.50;;;;;;5013457;28;20424;-70
2021/12/30 03:35:32;;;;;;;1.02;0.40;;;19.30;64.50;;;;;;4995686;28;20022;-70
2021/12/30 03:37:58;;;;;;;0.73;0.40;;;19.30;64.50;;;;;;4977742;28;20057;-70
2021/12/30 03:40:23;;;;;;;1.88;0.60;;;19.30;64.50;;;;;;4995155;28;20041;-70
2021/12/30 03:42:49;;;;;;;0.80;0.47;;;19.30;64.50;;;;;;5012430;28;20030;-70
2021/12/30 03:45:15;;;;;;;0.80;0.45;;;19.30;65.50;;;;;;4997260;28;20026;-70
2021/12/30 03:47:43;;;;;;;1.25;0.55;;;19.30;64.60;;;;;;5013889;28;20091;-70
2021/12/30 03:50:14;;;;;;;0.90;0.50;;;19.20;64.50;;;;;;4997652;28;20026;-70
2021/12/30 03:52:39;;;;;;;0.57;0.45;;;19.30;64.50;;;;;;5014860;28;20105;-70
2021/12/30 03:55:05;;;;;;;1.40;0.57;;;19.30;64.60;;;;;;5013562;28;20093;-71
2021/12/30 03:57:31;;;;;;;1.95;0.50;;;19.30;64.70;;;;;;5014517;28;20022;-70
2021/12/30 03:59:57;;;;;;;1.50;0.50;;;19.30;64.60;;;;;;5013538;28;20041;-70
2021/12/30 04:02:22;;;;;;;1.48;0.57;;;19.30;64.60;;;;;;5013663;28;20033;-70
2021/12/30 04:04:48;;;;;;;0.65;0.43;;;19.30;65.70;;;;;;5014391;28;20025;-70
2021/12/30 04:07:14;;;;;;;0.82;0.50;;;19.30;64.60;;;;;;5014593;28;20057;-70
2021/12/30 04:09:39;;;;;;;1.17;0.30;;;19.30;64.60;;;;;;5013169;28;20530;-70
2021/12/30 04:12:05;;;;;;;1.67;0.60;;;19.30;64.70;;;;;;5012976;28;20030;-70
2021/12/30 04:14:31;;;;;;;0.82;0.52;;;19.30;64.60;;;;;;5014349;28;20100;-70
2021/12/30 04:16:56;;;;;;;1.10;0.55;;;19.30;64.60;;;;;;5013233;28;20077;-70
2021/12/30 04:19:22;;;;;;;1.63;0.55;;;19.30;64.70;;;;;;5014590;28;20037;-71
2021/12/30 04:21:53;;;;;;;1.83;0.40;;;19.30;64.70;;;;;;5013072;28;20030;-70
2021/12/30 04:24:18;;;;;;;1.30;0.43;;;19.30;64.70;;;;;;5014341;28;20105;-70
2021/12/30 04:26:44;;;;;;;0.75;0.32;;;19.30;64.70;;;;;;5013994;28;20068;-70
2021/12/30 04:29:10;;;;;;;1.20;0.50;;;19.30;64.70;;;;;;5012683;28;20049;-71
2021/12/30 04:31:35;;;;;;;0.63;0.50;;;19.30;64.70;;;;;;5013114;28;20053;-71
2021/12/30 04:34:01;;;;;;;1.25;0.40;;;19.30;64.70;;;;;;5013718;28;20474;-71
2021/12/30 04:36:26;;;;;;;1.05;0.50;;;19.30;64.70;;;;;;5012752;28;20101;-71
2021/12/30 04:38:52;;;;;;;0.40;0.30;;;19.20;64.70;;;;;;5013942;28;20484;-71
2021/12/30 04:41:18;;;;;;;0.63;0.30;;;19.30;65.80;;;;;;5006835;28;20050;-71
2021/12/30 04:43:43;;;;;;;1.13;0.40;;;19.30;64.80;;;;;;4993187;28;20033;-71
2021/12/30 04:46:09;;;;;;;1.15;0.52;;;19.20;64.70;;;;;;4994217;28;20037;-71
2021/12/30 04:48:35;;;;;;;0.50;0.38;;;19.20;64.70;;;;;;4994184;28;20138;-71
2021/12/30 04:51:01;;;;;;;0.43;0.30;;;19.20;64.80;;;;;;4993825;28;20440;-71
2021/12/30 04:53:26;;;;;;;0.98;0.50;;;19.30;64.80;;;;;;4992406;28;20025;-71
2021/12/30 04:55:52;;;;;;;1.00;0.50;;;19.20;64.80;;;;;;4993743;28;20405;-71
2021/12/30 04:58:18;;;;;;;0.70;0.40;;;19.20;64.80;;;;;;4993002;28;20102;-71
2021/12/30 05:00:43;;;;;;;1.80;0.60;;;19.20;64.80;;;;;;4976730;28;20489;-71
2021/12/30 05:05:45;;;;;;;1.38;0.35;;;19.20;64.80;;;;;;4994171;28;20400;-71
2021/12/30 05:08:14;;;;;;;0.60;0.50;;;19.30;64.90;;;;;;4976693;28;20018;-71
2021/12/30 05:10:40;;;;;;;0.55;0.40;;;19.20;64.80;;;;;;4976386;28;20046;-70
2021/12/30 05:13:06;;;;;;;1.83;0.63;;;19.20;64.90;;;;;;4992381;28;20026;-70
2021/12/30 05:15:32;;;;;;;0.88;0.50;;;19.20;64.80;;;;;;4976431;28;20116;-70
2021/12/30 05:17:58;;;;;;;0.90;0.35;;;19.20;64.90;;;;;;4992485;28;20047;-70
2021/12/30 05:20:24;;;;;;;1.17;0.60;;;19.20;64.90;;;;;;4993592;28;20062;-70
2021/12/30 05:22:49;;;;;;;0.70;0.50;;;19.20;64.90;;;;;;4992514;28;20027;-70
2021/12/30 05:25:16;;;;;;;1.02;0.50;;;19.20;64.90;;;;;;4991794;28;20034;-70
2021/12/30 05:27:41;;;;;;;1.08;0.52;;;19.20;64.90;;;;;;4992428;28;20022;-70
2021/12/30 05:30:08;;;;;;;0.57;0.40;;;19.20;64.90;;;;;;4993295;28;20386;-70
2021/12/30 05:32:34;;;;;;;2.53;0.40;;;19.20;64.90;;;;;;4976199;28;20022;-70
2021/12/30 05:35:00;;;;;;;1.23;0.60;;;19.20;64.90;;;;;;5009094;28;20026;-70
2021/12/30 05:37:26;;;;;;;0.68;0.30;;;19.20;64.90;;;;;;5012942;28;20045;-70
2021/12/30 05:39:52;;;;;;;0.35;0.30;;;19.20;66.00;;;;;;5011484;28;20476;-70
2021/12/30 05:42:17;;;;;;;0.90;0.40;;;19.20;65.00;;;;;;5011454;28;20080;-71
2021/12/30 05:44:43;;;;;;;0.32;0.30;;;19.20;65.00;;;;;;5013030;28;20030;-71
2021/12/30 05:47:08;;;;;;;0.30;0.30;;;19.20;65.00;;;;;;5011584;28;20084;-71
2021/12/30 05:49:34;;;;;;;0.50;0.50;;;19.20;65.00;;;;;;5011479;28;20061;-71
2021/12/30 05:52:00;;;;;;;0.60;0.40;;;19.20;65.00;;;;;;5012572;28;20057;-71
2021/12/30 05:54:26;;;;;;;0.50;0.32;;;19.20;65.00;;;;;;5011291;28;20026;-71
2021/12/30 05:56:52;;;;;;;2.10;0.40;;;19.20;65.00;;;;;;5012786;28;20439;-71
2021/12/30 05:59:17;;;;;;;1.23;0.52;;;19.20;65.00;;;;;;5012512;28;20076;-71
2021/12/30 06:01:43;;;;;;;1.40;0.50;;;19.20;65.10;;;;;;5012692;28;20065;-71
2021/12/30 06:04:09;;;;;;;1.90;0.40;;;19.20;65.10;;;;;;5012556;28;20036;-70
2021/12/30 06:06:34;;;;;;;1.00;0.47;;;19.10;65.00;;;;;;5012501;28;20076;-71
2021/12/30 06:09:00;;;;;;;0.52;0.30;;;19.20;65.10;;;;;;5011879;28;20037;-71
2021/12/30 06:11:26;;;;;;;1.90;0.40;;;19.20;65.10;;;;;;5011440;28;20029;-71
2021/12/30 06:13:51;;;;;;;0.77;0.50;;;19.20;65.10;;;;;;5012585;28;20380;-71
2021/12/30 06:16:17;;;;;;;0.73;0.43;;;19.20;65.10;;;;;;5011373;28;20105;-70
2021/12/30 06:18:42;;;;;;;0.68;0.30;;;19.10;65.00;;;;;;5012632;28;20460;-71
2021/12/30 06:21:08;;;;;;;0.57;0.50;;;19.20;65.10;;;;;;5012208;28;20029;-71
2021/12/30 06:23:34;;;;;;;0.70;0.55;;;19.20;65.10;;;;;;5012299;28;20026;-70
2021/12/30 06:25:59;;;;;;;1.00;0.30;;;19.20;65.20;;;;;;5011300;28;20022;-70
2021/12/30 06:28:25;;;;;;;0.80;0.47;;;19.10;65.10;;;;;;4989354;28;20480;-69
2021/12/30 06:30:51;;;;;;;1.45;0.60;;;19.20;65.10;;;;;;4992130;28;20026;-70
2021/12/30 06:33:18;;;;;;;0.68;0.45;;;19.20;65.20;;;;;;5007255;28;20117;-70
2021/12/30 06:35:44;;;;;;;0.85;0.40;;;19.20;65.20;;;;;;5008793;28;20021;-70
2021/12/30 06:38:09;;;;;;;1.95;0.30;;;19.10;65.20;;;;;;5008949;28;20018;-70
2021/12/30 06:40:35;;;;;;;2.40;0.43;;;19.20;65.20;;;;;;5009463;28;20022;-70
2021/12/30 06:43:01;;;;;;;0.30;0.22;;;19.20;65.20;;;;;;5009102;28;20077;-70
2021/12/30 06:45:26;;;;;;;1.83;0.50;;;19.20;65.20;;;;;;5009078;28;20026;-70
2021/12/30 06:47:52;;;;;;;0.47;0.35;;;19.20;65.20;;;;;;5007605;28;20069;-70
2021/12/30 06:50:20;;;;;;;0.80;0.50;;;19.20;65.20;;;;;;4993039;28;20554;-70
2021/12/30 06:52:48;;;;;;;1.52;0.43;;;19.20;65.20;;;;;;5007485;28;20076;-70
2021/12/30 06:55:14;;;;;;;0.68;0.47;;;19.20;65.10;;;;;;5009660;28;20029;-70
2021/12/30 06:57:40;;;;;;;0.65;0.43;;;19.20;65.10;;;;;;5006152;28;20030;-70
2021/12/30 07:00:07;;;;;;;0.65;0.32;;;19.30;65.10;;;;;;4998457;28;20042;-70
2021/12/30 07:02:34;;;;;;;1.35;0.52;;;19.30;65.10;;;;;;4999687;28;20061;-70
2021/12/30 07:05:00;;;;;;;0.90;0.40;;;19.30;65.10;;;;;;5004233;28;20022;-70
2021/12/30 07:07:25;;;;;;;1.40;0.77;;;19.30;65.10;;;;;;5000412;28;20046;-70
2021/12/30 07:09:51;;;;;;;0.80;0.30;;;19.30;65.00;;;;;;4993769;28;20436;-70
2021/12/30 07:12:17;;;;;;;2.20;0.68;;;19.30;65.00;;;;;;5006971;28;20567;-70
2021/12/30 07:14:43;;;;;;;1.10;0.70;;;19.30;65.00;;;;;;4996929;28;20022;-71
2021/12/30 07:17:08;;;;;;;0.80;0.50;;;19.30;65.00;;;;;;4989109;28;20073;-72
2021/12/30 07:19:34;;;;;;;1.83;0.60;;;19.30;65.00;;;;;;4994380;28;20022;-71
2021/12/30 07:21:59;;;;;;;2.50;1.10;;;19.30;64.90;;;;;;4994077;28;20481;-71
2021/12/30 07:24:25;;;;;;;3.25;0.95;;;19.30;64.90;;;;;;4994755;28;20374;-71
2021/12/30 07:26:51;;;;;;;3.28;1.30;;;19.30;66.00;;;;;;4994457;28;20440;-71
2021/12/30 07:29:17;;;;;;;3.17;1.33;;;19.40;65.00;;;;;;4978011;28;20035;-71
2021/12/30 07:31:42;;;;;;;4.90;1.42;;;19.40;65.00;;;;;;4978141;28;20026;-71
2021/12/30 07:34:08;;;;;;;5.03;1.45;;;19.40;65.00;;;;;;5003117;28;20028;-71
2021/12/30 07:36:34;;;;;;;3.97;1.20;;;19.40;64.90;;;;;;5014739;28;20369;-71
2021/12/30 07:38:59;;;;;;;1.80;0.93;;;19.40;64.90;;;;;;4994748;28;20062;-71
2021/12/30 07:41:25;;;;;;;3.47;1.40;;;19.40;64.90;;;;;;5010636;28;20392;-71
2021/12/30 07:43:50;;;;;;;3.42;1.05;;;19.40;64.90;;;;;;4994267;28;20073;-71
2021/12/30 07:46:16;;;;;;;5.88;1.40;;;19.40;64.80;;;;;;4986971;28;20022;-71
2021/12/30 07:48:42;;;;;;;2.03;0.85;;;19.40;64.80;;;;;;5014826;28;20113;-71
2021/12/30 07:51:07;;;;;;;3.20;0.90;;;19.40;64.80;;;;;;5014509;28;20038;-71
2021/12/30 07:53:33;;;;;;;3.80;1.45;;;19.40;64.80;;;;;;4997339;28;20358;-71
2021/12/30 07:56:01;;;;;;;2.72;0.90;;;19.40;64.80;;;;;;4978913;28;20041;-71
2021/12/30 07:58:27;;;;;;;5.40;1.25;;;19.40;64.70;;;;;;4993861;28;20042;-71
2021/12/30 08:00:52;;;;;;;3.78;1.02;;;19.50;64.80;;;;;;4994091;28;20077;-71
2021/12/30 08:03:19;;;;;;;4.15;1.40;;;19.50;64.70;;;;;;4995149;28;20105;-71
2021/12/30 08:05:45;;;;;;;2.28;1.13;;;19.40;64.70;;;;;;4994757;28;20022;-71
2021/12/30 08:08:10;;;;;;;2.40;1.48;;;19.40;64.70;;;;;;4993843;28;20053;-71
2021/12/30 08:10:36;;;;;;;2.47;1.20;;;19.50;64.70;;;;;;4993614;28;20492;-71
2021/12/30 08:13:02;;;;;;;3.58;1.00;;;19.50;64.70;;;;;;4995855;28;20033;-71
2021/12/30 08:15:28;;;;;;;3.45;1.38;;;19.50;64.70;;;;;;5014270;28;20025;-71
2021/12/30 08:17:54;;;;;;;3.17;0.98;;;19.50;64.70;;;;;;5013186;28;20477;-71
2021/12/30 08:20:22;;;;;;;2.78;1.05;;;19.50;64.60;;;;;;4996642;28;20026;-71
2021/12/30 08:22:47;;;;;;;2.80;1.10;;;19.50;64.60;;;;;;5014312;28;20026;-71
2021/12/30 08:25:13;;;;;;;2.38;1.00;;;19.50;65.60;;;;;;5013037;28;20034;-71
2021/12/30 08:27:39;;;;;;;2.30;1.08;;;19.50;64.60;;;;;;5011971;28;20022;-71
2021/12/30 08:30:07;;;;;;;1.20;0.90;;;19.50;64.60;;;;;;5012938;28;20034;-71
2021/12/30 08:32:32;;;;;;;3.60;1.02;;;19.50;64.60;;;;;;4996285;28;20036;-71
2021/12/30 08:34:58;;;;;;;2.25;1.00;;;19.50;64.60;;;;;;4996826;28;20465;-71
2021/12/30 08:37:23;;;;;;;1.55;0.80;;;19.50;64.60;;;;;;4994510;28;20511;-71
2021/12/30 08:39:49;;;;;;;3.95;1.08;;;19.50;64.60;;;;;;4993159;28;20041;-71
2021/12/30 08:42:25;;;;;;;2.17;1.02;;;19.50;64.60;;;;;;4993130;28;20023;-71
2021/12/30 08:44:52;;;;;;;1.33;0.85;;;19.50;64.50;;;;;;4994406;28;20030;-71
2021/12/30 08:47:17;;;;;;;1.75;1.02;;;19.50;64.60;;;;;;5013542;28;20174;-71
2021/12/30 08:49:46;;;;;;;1.10;0.80;;;19.50;64.60;;;;;;5013358;28;20115;-71
2021/12/30 08:52:13;;;;;;;2.05;0.95;;;19.50;64.50;;;;;;4996630;28;20101;-71
2021/12/30 08:54:39;;;;;;;2.15;1.05;;;19.50;64.50;;;;;;4996236;28;20026;-71
2021/12/30 08:57:05;;;;;;;1.13;0.60;;;19.50;64.50;;;;;;5013646;28;20037;-71
2021/12/30 08:59:30;;;;;;;2.00;0.90;;;19.50;64.50;;;;;;4996098;28;20029;-71
2021/12/30 09:01:56;;;;;;;1.02;0.63;;;19.50;64.50;;;;;;5012011;28;20033;-71
2021/12/30 09:04:22;;;;;;;2.67;0.80;;;19.50;64.50;;;;;;5012188;28;20049;-71
2021/12/30 09:06:47;;;;;;;2.72;0.90;;;19.50;64.50;;;;;;5012453;28;20033;-71
2021/12/30 09:09:13;;;;;;;1.45;0.80;;;19.50;64.50;;;;;;5013150;28;20030;-71
2021/12/30 09:11:38;;;;;;;1.20;0.70;;;19.50;65.50;;;;;;5013456;28;20060;-71
2021/12/30 09:14:04;;;;;;;2.47;1.10;;;19.50;64.40;;;;;;5013350;28;20483;-71
2021/12/30 09:16:29;;;;;;;1.67;0.85;;;19.50;64.40;;;;;;5013061;28;20025;-71
2021/12/30 09:18:56;;;;;;;2.03;1.13;;;19.50;64.40;;;;;;5012231;28;20026;-71
2021/12/30 09:21:21;;;;;;;1.02;0.80;;;19.60;64.50;;;;;;5012135;28;20025;-71
2021/12/30 09:23:48;;;;;;;1.10;0.80;;;19.50;64.50;;;;;;5013201;28;20026;-71
2021/12/30 09:26:14;;;;;;;2.22;0.60;;;19.60;64.40;;;;;;5013258;28;20018;-71
2021/12/30 09:28:40;;;;;;;2.38;0.93;;;19.60;64.50;;;;;;5011749;28;20030;-71
2021/12/30 09:31:05;;;;;;;1.13;0.80;;;19.60;64.50;;;;;;5011575;28;20096;-71
2021/12/30 09:33:31;;;;;;;1.10;0.80;;;19.60;64.40;;;;;;5011630;28;20041;-71
2021/12/30 09:35:56;;;;;;;1.63;0.95;;;19.60;64.50;;;;;;5012960;28;20455;-71
2021/12/30 09:38:22;;;;;;;1.80;0.88;;;19.60;64.40;;;;;;4995086;28;20436;-71
2021/12/30 09:40:48;;;;;;;2.60;0.80;;;19.60;64.40;;;;;;5011844;28;20097;-71
2021/12/30 09:43:13;;;;;;;2.38;0.73;;;19.60;64.40;;;;;;5012865;28;20488;-71
2021/12/30 09:45:41;;;;;;;1.33;0.88;;;19.60;64.40;;;;;;4988634;28;20535;-71
2021/12/30 09:48:09;;;;;;;1.70;0.80;;;19.60;64.40;;;;;;4992199;28;20109;-71
2021/12/30 09:50:41;;;;;;;1.58;0.88;;;19.50;64.30;;;;;;4975925;28;20034;-71
2021/12/30 09:53:06;;;;;;;1.73;1.10;;;19.60;64.40;;;;;;4993296;28;20030;-71
2021/12/30 09:55:33;;;;;;;2.03;1.20;;;19.60;64.30;;;;;;4991964;28;20018;-71
2021/12/30 09:57:59;;;;;;;1.40;0.82;;;19.60;64.40;;;;;;4991857;28;20018;-71
2021/12/30 10:00:25;;;;;;;1.92;1.10;;;19.60;64.40;;;;;;4975492;28;20030;-71
2021/12/30 10:02:50;;;;;;;2.40;1.08;;;19.60;64.30;;;;;;4975742;28;20080;-71
2021/12/30 10:05:18;;;;;;;1.70;0.90;;;19.60;64.30;;;;;;4992993;28;20050;-71
2021/12/30 10:07:44;;;;;;;1.05;0.60;;;19.60;64.30;;;;;;4992804;28;20105;-71
2021/12/30 10:10:34;;;;;;;1.42;0.73;;;19.50;64.20;;;;;;4991584;28;20172;-71
2021/12/30 10:13:01;;;;;;;1.13;0.60;;;19.60;64.20;;;;;;4991727;28;20118;-71
2021/12/30 10:15:29;;;;;;;2.10;0.88;;;19.60;64.30;;;;;;4975351;28;20061;-71
2021/12/30 10:17:57;;;;;;;1.45;0.80;;;19.60;64.20;;;;;;4975889;28;20023;-71
2021/12/30 10:20:27;;;;;;;1.42;0.75;;;19.60;64.20;;;;;;4992865;28;20057;-71
2021/12/30 10:22:53;;;;;;;1.00;0.60;;;19.60;65.30;;;;;;4991640;28;20164;-71
2021/12/30 10:25:33;;;;;;;1.50;0.88;;;19.60;64.20;;;;;;4992714;28;20050;-71
2021/12/30 10:28:25;;;;;;;0.95;0.60;;;19.60;64.10;;;;;;4991768;28;20169;-71
2021/12/30 10:30:56;;;;;;;1.40;0.57;;;19.60;64.10;;;;;;4992320;28;20027;-71
2021/12/30 10:33:29;;;;;;;1.15;0.60;;;19.60;64.20;;;;;;4977724;28;20077;-71
2021/12/30 10:35:54;;;;;;;0.93;0.60;;;19.60;64.20;;;;;;4995134;28;20022;-71
2021/12/30 10:38:20;;;;;;;1.52;0.75;;;19.60;64.20;;;;;;4994974;28;20018;-71
2021/12/30 10:40:49;;;;;;;1.52;0.65;;;19.60;64.20;;;;;;5012338;28;20547;-71
2021/12/30 10:43:33;;;;;;;1.13;0.80;;;19.60;64.20;;;;;;4994939;28;20026;-71
2021/12/30 10:46:05;;;;;;;0.80;0.43;;;19.60;64.20;;;;;;4996240;28;20045;-71
2021/12/30 10:48:31;;;;;;;0.70;0.60;;;19.60;64.20;;;;;;5012002;28;20030;-71
2021/12/30 10:51:19;;;;;;;1.38;0.70;;;19.60;64.20;;;;;;5012387;28;20388;-71
2021/12/30 10:53:45;;;;;;;1.05;0.60;;;19.60;64.00;;;;;;5015848;28;20072;-71
2021/12/30 10:56:31;;;;;;;1.73;0.80;;;19.60;64.20;;;;;;4998684;28;20025;-71
2021/12/30 10:59:18;;;;;;;0.65;0.45;;;19.60;64.10;;;;;;5014468;28;20453;-71
2021/12/30 11:01:46;;;;;;;1.23;0.57;;;19.60;64.10;;;;;;5014550;28;20018;-71
2021/12/30 11:04:11;;;;;;;1.10;0.70;;;19.60;65.20;;;;;;4998658;28;20025;-71
2021/12/30 11:06:37;;;;;;;1.17;0.70;;;19.60;64.20;;;;;;4998091;28;20475;-71
2021/12/30 11:09:18;;;;;;;1.00;0.77;;;19.60;65.20;;;;;;5015436;28;20584;-71
2021/12/30 11:11:52;;;;;;;1.27;0.70;;;19.60;64.00;;;;;;5015508;28;20480;-71
2021/12/30 11:14:20;;;;;;;0.70;0.70;;;19.60;64.10;;;;;;4998019;28;20037;-71
2021/12/30 11:17:05;;;;;;;1.73;0.65;;;19.60;65.10;;;;;;5015575;28;20022;-71
2021/12/30 11:19:34;;;;;;;1.13;0.60;;;19.60;64.00;;;;;;5014322;28;20407;-71
2021/12/30 11:22:00;;;;;;;0.93;0.63;;;19.60;64.10;;;;;;4998310;28;20022;-71
2021/12/30 11:24:28;;;;;;;1.40;0.70;;;19.60;64.10;;;;;;4998076;28;20050;-71
2021/12/30 11:26:54;;;;;;;0.38;0.38;;;19.60;64.10;;;;;;4998086;28;20021;-71
2021/12/30 11:29:20;;;;;;;1.00;0.60;;;19.60;64.10;;;;;;5014883;28;20503;-71
2021/12/30 11:31:46;;;;;;;0.50;0.43;;;19.60;64.10;;;;;;5014100;28;20022;-71
2021/12/30 11:34:12;;;;;;;0.90;0.50;;;19.60;64.00;;;;;;5005900;28;20096;-71
2021/12/30 11:36:37;;;;;;;1.88;0.90;;;19.60;64.00;;;;;;4978253;28;20092;-71
2021/12/30 11:39:11;;;;;;;1.23;0.75;;;19.60;64.00;;;;;;4994526;28;20022;-71
2021/12/30 11:41:37;;;;;;;0.75;0.60;;;19.60;64.00;;;;;;4994010;28;20389;-71
2021/12/30 11:44:03;;;;;;;1.23;0.60;;;19.60;64.00;;;;;;4978084;28;20076;-71
2021/12/30 11:46:46;;;;;;;0.70;0.50;;;19.60;64.00;;;;;;5007114;28;20022;-71
2021/12/30 11:49:13;;;;;;;1.08;0.80;;;19.60;63.80;;;;;;5014927;28;20049;-71
2021/12/30 11:51:43;;;;;;;1.08;0.57;;;19.60;64.00;;;;;;5013583;28;20033;-71
2021/12/30 11:54:30;;;;;;;1.33;0.70;;;19.60;63.90;;;;;;5013874;28;20502;-71
2021/12/30 11:57:25;;;;;;;0.55;0.45;;;19.60;63.80;;;;;;5014482;28;20029;-71
2021/12/30 11:59:52;;;;;;;1.02;0.65;;;19.60;63.80;;;;;;5014652;28;20040;-71
2021/12/30 12:02:35;;;;;;;0.75;0.65;;;19.60;64.00;;;;;;4997220;28;20021;-71
2021/12/30 12:05:40;;;;;;;0.60;0.50;;;19.60;64.10;;;;;;5014787;28;20547;-71
2021/12/30 12:08:08;;;;;;;1.17;0.50;;;19.60;63.80;;;;;;5013462;28;20034;-71
2021/12/30 12:10:33;;;;;;;0.40;0.40;;;19.60;64.00;;;;;;5012853;28;20050;-71
2021/12/30 12:13:32;;;;;;;1.20;0.60;;;19.60;64.00;;;;;;5013265;28;20076;-71
2021/12/30 12:15:58;;;;;;;1.00;0.55;;;19.60;63.80;;;;;;5013336;28;20033;-71
2021/12/30 12:18:24;;;;;;;0.88;0.50;;;19.60;63.90;;;;;;4997055;28;20388;-71
2021/12/30 12:20:51;;;;;;;0.40;0.40;;;19.60;63.90;;;;;;5014231;28;20033;-71
2021/12/30 12:23:45;;;;;;;0.70;0.50;;;19.60;63.90;;;;;;5013183;28;20030;-71
2021/12/30 12:26:13;;;;;;;1.05;0.50;;;19.60;63.70;;;;;;5012805;28;20061;-71
2021/12/30 12:28:39;;;;;;;0.47;0.32;;;19.60;63.90;;;;;;4996805;28;20072;-71
2021/12/30 12:31:08;;;;;;;0.80;0.60;;;19.60;63.80;;;;;;4980403;28;20026;-71
2021/12/30 12:33:35;;;;;;;0.50;0.30;;;19.60;63.80;;;;;;4996944;28;20101;-71
2021/12/30 12:36:15;;;;;;;0.50;0.50;;;19.60;63.80;;;;;;5012616;28;20030;-71
2021/12/30 12:38:50;;;;;;;0.80;0.40;;;19.60;63.80;;;;;;5014115;28;20022;-71
2021/12/30 12:41:22;;;;;;;1.15;0.60;;;19.60;63.80;;;;;;5012606;28;20036;-71
2021/12/30 12:44:11;;;;;;;0.55;0.50;;;19.60;63.80;;;;;;5013949;28;20018;-71
2021/12/30 12:46:47;;;;;;;0.43;0.35;;;19.60;63.80;;;;;;4998337;28;20050;-71
2021/12/30 12:49:14;;;;;;;0.60;0.38;;;19.60;63.80;;;;;;4994316;28;20107;-71
2021/12/30 12:51:55;;;;;;;0.50;0.30;;;19.60;63.80;;;;;;4993006;28;20392;-71